Greenville, MI

6:39 PM EST on December 21, 2014 (GMT -0500)
Roben-Hood | Change Station
CLOSE
Current Station
Airport
Location: Big Rapids,
Elevation: 991 ft
Nearby Weather Stations

Elev 991 ft 43.72 °N, 85.50 °W | Updated 4 minutes ago

Mostly Cloudy
Mostly Cloudy
32 °F
Feels Like 24 °F
N
9
Wind Variable Wind from SE

Today
High -- | Low -- °F
--% Chance of Precip.
Yesterday
High -- | Low -- °F
Precip. -- in
8:09 AM 5:08 PM
Waning Crescent, 0% visible
Pressure 30.13 in
Visibility 7.0 miles
Clouds Scattered Clouds 2200 ft
Scattered Clouds 3400 ft
Overcast 4000 ft
Windchill 24 °F
Dew Point 28 °F
Humidity 87%
Rainfall 0.00 in
Snow Depth Not available.
UV 0 out of 12
Pollen .10 out of 12
Air Quality Not available.
Flu Activity Not available.
METAR KRQB 212335Z AUTO 14008KT 7SM SCT022 SCT034 OVC040 00/M02 A3013 RMK AO2 T00001020

More Conditions Fewer Conditions

Pressure 30.13 in
Visibility 7.0 miles
Clouds Scattered Clouds 2200 ft
Scattered Clouds 3400 ft
Overcast 4000 ft
Windchill 24 °F
Dew Point 28 °F
Humidity 87%
Rainfall 0.00 in
Snow Depth Not available.
UV 0 out of 12
Pollen .10 out of 12
Air Quality Not available.
Flu Activity Not available.
METAR KRQB 212335Z AUTO 14008KT 7SM SCT022 SCT034 OVC040 00/M02 A3013 RMK AO2 T00001020

More Conditions Fewer Conditions

10-Day Weather Forecast

Almanac

Astronomy

Dec. 21, 2014 Rise Set
Actual Time
Civil Twilight
Nautical Twilight
Astronomical Twilight
Moon
Length of Visible Light
Length of Day
Tomorrow will be .
, % of the Moon is Illuminated

Today's Extremes

State Highs State Lows

Community

WunderPhotos

Upload Photos

1,779,503 photos uploaded!

WunderBlogs® & News

Nearby

Air Quality

  Air Quality AQ Index Pollutant
Not available.

Snow Depth

Station Depth Elevation

Earthquake Activity

City Distance Mag. Time & Date
Minimum magnitude displayed is 2.5.

Coastal Water Temperatures

Place Temperature

Nearby Weather Stations